Time;durP1;ratioP1;P1;durP2;ratioP2;P2;SDS_P1;SDS_P2;PMS_P1;PMS_P2;Temp;Humidity;BMP_temperature;BMP_pressure;BME280_temperature;BME280_humidity;BME280_pressure;Samples;Min_cycle;Max_cycle;Signal;HPM_P1;HPM_P2
2020/12/16 00:00:02;;;;;;;28.90;18.65;;;9.30;99.90;;;9.41;83.47;101315.28;5073310;28;20051;-77
2020/12/16 00:02:31;;;;;;;;;;;9.30;99.90;;;9.19;83.59;101284.34;5072922;28;20127;-77
2020/12/16 00:04:59;;;;;;;27.30;18.10;;;9.20;99.90;;;9.16;84.01;101272.84;5071788;28;20029;-77
2020/12/16 00:07:27;;;;;;;27.10;17.90;;;9.20;99.90;;;9.32;83.73;101312.59;5072691;28;20068;-76
2020/12/16 00:09:55;;;;;;;27.83;18.42;;;9.20;99.90;;;9.21;84.13;101309.00;5072862;28;20060;-77
2020/12/16 00:12:23;;;;;;;29.48;18.60;;;9.10;99.90;;;9.18;84.71;101305.41;5072484;28;20407;-77
2020/12/16 00:14:51;;;;;;;30.60;19.00;;;9.10;99.90;;;9.05;84.34;101304.44;5072422;28;20051;-76
2020/12/16 00:17:24;;;;;;;27.77;17.15;;;9.00;99.90;;;8.86;85.26;101305.16;5072497;28;20047;-77
2020/12/16 00:19:51;;;;;;;28.33;17.90;;;8.70;99.90;;;8.86;85.63;101305.16;5072670;28;20485;-76
2020/12/16 00:22:35;;;;;;;27.85;18.27;;;8.70;99.90;;;8.64;85.89;101289.97;5072470;28;20059;-76
2020/12/16 00:25:04;;;;;;;29.88;17.95;;;8.60;99.90;;;8.72;86.63;101304.13;5072395;28;20040;-76
2020/12/16 00:27:32;;;;;;;26.80;18.25;;;8.50;99.90;;;8.60;87.16;101311.91;5071365;28;20044;-76
2020/12/16 00:30:00;;;;;;;26.27;17.90;;;8.50;99.90;;;8.63;87.45;101306.69;5072228;28;20041;-76
2020/12/16 00:32:27;;;;;;;32.10;19.20;;;8.50;99.90;;;8.41;87.99;101308.19;5072609;28;20071;-76
2020/12/16 00:34:55;;;;;;;31.00;20.20;;;8.30;99.90;;;8.27;89.21;101315.06;5072492;28;20041;-76
2020/12/16 00:37:22;;;;;;;29.15;20.33;;;8.20;99.90;;;8.30;90.00;101317.75;5071140;28;20449;-76
2020/12/16 00:39:50;;;;;;;32.53;19.67;;;8.20;99.90;;;8.25;90.08;101321.16;5072211;28;20413;-76
2020/12/16 00:42:17;;;;;;;29.30;19.83;;;8.10;99.90;;;8.24;90.20;101320.28;5072602;28;20044;-75
2020/12/16 00:44:45;;;;;;;28.27;19.77;;;8.10;99.90;;;8.31;90.70;101329.16;5072239;28;20040;-75
2020/12/16 00:47:16;;;;;;;27.70;19.48;;;8.10;99.90;;;8.38;90.56;101312.56;5071025;28;20067;-76
2020/12/16 00:49:43;;;;;;;29.05;20.20;;;8.20;99.90;;;8.46;90.20;101287.19;5071016;28;20044;-75
2020/12/16 00:52:11;;;;;;;31.13;20.65;;;8.40;99.90;;;8.75;89.55;101317.38;5072280;28;20436;-75
2020/12/16 00:54:38;;;;;;;27.05;20.33;;;8.50;99.90;;;8.75;88.90;101312.09;5070953;28;20066;-75
2020/12/16 00:57:06;;;;;;;33.83;19.98;;;8.60;99.90;;;8.58;89.49;101317.19;5070566;28;20131;-76
2020/12/16 00:59:33;;;;;;;33.88;21.08;;;8.50;99.90;;;8.22;90.24;101311.47;5072220;28;20052;-75
2020/12/16 01:02:04;;;;;;;35.30;21.05;;;8.20;99.90;;;7.95;91.24;101308.47;5070841;28;20055;-76
2020/12/16 01:04:32;;;;;;;33.05;21.90;;;8.00;99.90;;;7.99;92.17;101326.94;5071829;28;20569;-75
2020/12/16 01:07:01;;;;;;;36.78;21.17;;;7.90;99.90;;;7.98;92.25;101316.41;5070771;28;20037;-76
2020/12/16 01:09:29;;;;;;;30.20;21.50;;;7.90;99.90;;;8.06;92.41;101335.84;5071731;28;20413;-75
2020/12/16 01:11:57;;;;;;;32.55;21.52;;;7.90;99.90;;;7.90;92.95;101323.31;5070472;28;20053;-76
2020/12/16 01:14:24;;;;;;;37.15;21.02;;;7.80;99.90;;;7.77;93.07;101337.19;5074323;28;20060;-75
2020/12/16 01:16:52;;;;;;;28.80;21.73;;;7.70;99.90;;;7.33;93.51;101265.47;5074538;28;20044;-75
2020/12/16 01:19:25;;;;;;;33.53;21.13;;;7.60;99.90;;;7.57;93.55;101326.34;5074884;28;20079;-75
2020/12/16 01:21:53;;;;;;;33.90;21.88;;;7.50;99.90;;;7.38;94.62;101319.03;5074497;28;20072;-75
2020/12/16 01:24:20;;;;;;;32.50;24.10;;;7.40;99.90;;;7.38;94.43;101334.84;5074555;28;20056;-75
2020/12/16 01:26:51;;;;;;;36.58;24.40;;;7.30;99.90;;;7.47;94.88;101344.63;5074529;28;20102;-76
2020/12/16 01:29:20;;;;;;;39.70;24.50;;;7.30;99.90;;;7.59;94.77;101347.47;5074542;28;20058;-75
2020/12/16 01:31:49;;;;;;;39.35;25.15;;;7.40;99.90;;;7.42;94.37;101319.97;5074492;28;20094;-75
2020/12/16 01:34:29;;;;;;;42.05;26.65;;;7.50;99.90;;;7.53;94.47;101345.59;5075984;28;20049;-75
2020/12/16 01:37:03;;;;;;;41.78;25.55;;;7.40;99.90;;;7.60;94.26;101342.22;5074416;28;20059;-75
2020/12/16 01:39:36;;;;;;;40.80;25.85;;;7.50;99.90;;;7.46;94.04;101341.09;5074476;28;20052;-74
2020/12/16 01:42:04;;;;;;;38.15;25.60;;;7.50;99.90;;;7.51;94.00;101335.94;5074152;28;20048;-75
2020/12/16 01:44:31;;;;;;;37.28;24.70;;;7.40;99.90;;;7.40;94.97;101324.31;5074311;28;20409;-75
2020/12/16 01:47:03;;;;;;;39.65;26.48;;;7.40;99.90;;;6.85;95.25;101248.94;5074282;28;20052;-74
2020/12/16 01:49:40;;;;;;;37.55;26.77;;;7.30;99.90;;;7.16;95.59;101312.56;5074194;28;20064;-75
2020/12/16 01:52:08;;;;;;;44.25;27.67;;;7.20;99.90;;;7.10;96.29;101322.09;5074239;28;20044;-75
2020/12/16 01:54:47;;;;;;;45.50;28.80;;;7.10;99.90;;;7.18;96.11;101329.25;5074154;28;20072;-75
2020/12/16 01:57:19;;;;;;;44.10;27.67;;;7.10;99.90;;;7.19;96.59;101332.78;5074076;28;20052;-75
2020/12/16 01:59:54;;;;;;;47.92;29.02;;;7.10;99.90;;;7.04;96.61;101338.66;5073699;28;20049;-74
2020/12/16 02:02:45;;;;;;;55.28;29.35;;;7.10;99.90;;;7.08;96.95;101314.16;5074987;28;20405;-75
2020/12/16 02:05:22;;;;;;;49.05;29.80;;;7.20;99.90;;;7.20;96.63;101330.16;5073799;28;20082;-75
2020/12/16 02:07:55;;;;;;;49.05;30.67;;;7.20;99.90;;;7.38;96.31;101333.94;5073912;28;20123;-75
2020/12/16 02:10:25;;;;;;;43.30;30.85;;;7.30;99.90;;;7.45;96.15;101342.00;5073764;28;20044;-74
2020/12/16 02:12:52;;;;;;;50.72;29.48;;;7.30;99.90;;;7.22;95.66;101311.75;5074700;28;20040;-75
2020/12/16 02:15:20;;;;;;;52.20;31.17;;;7.30;99.90;;;7.38;95.82;101341.84;5074966;28;20055;-75
2020/12/16 02:17:49;;;;;;;57.78;33.25;;;7.30;99.90;;;7.31;95.02;101343.50;5073620;28;20049;-75
2020/12/16 02:20:21;;;;;;;53.45;33.50;;;7.30;99.90;;;7.34;95.58;101348.81;5073442;28;20059;-75
2020/12/16 02:22:55;;;;;;;51.92;33.15;;;7.30;99.90;;;7.38;95.50;101331.31;5074992;28;20055;-75
2020/12/16 02:25:30;;;;;;;60.60;35.17;;;7.30;99.90;;;7.41;95.01;101329.63;5074193;28;20060;-75
2020/12/16 02:28:03;;;;;;;49.67;33.63;;;7.40;99.90;;;7.59;94.78;101348.31;5073655;28;20040;-75
2020/12/16 02:30:34;;;;;;;49.47;31.95;;;7.40;99.90;;;7.54;94.73;101341.22;5074903;28;20457;-75
2020/12/16 02:33:34;;;;;;;54.40;33.28;;;7.50;99.90;;;7.57;94.53;101336.88;5066914;28;20098;-75
2020/12/16 02:36:09;;;;;;;51.92;32.72;;;7.50;99.90;;;6.76;94.43;101204.97;5073905;28;20049;-75
2020/12/16 02:38:55;;;;;;;52.47;32.47;;;7.40;99.90;;;7.50;94.66;101336.78;5073450;28;20521;-75
2020/12/16 02:41:31;;;;;;;56.58;32.83;;;7.40;99.90;;;7.36;94.53;101330.41;5073409;28;20056;-75
2020/12/16 02:44:00;;;;;;;52.63;30.70;;;7.40;99.90;;;7.07;94.93;101306.25;5073481;28;20060;-75
2020/12/16 02:46:33;;;;;;;50.35;31.85;;;7.20;99.90;;;7.09;95.32;101329.09;5073294;28;20135;-75
2020/12/16 02:49:02;;;;;;;54.15;32.20;;;7.10;99.90;;;7.28;95.83;101346.97;5073193;28;20044;-75
2020/12/16 02:51:32;;;;;;;49.85;31.15;;;7.20;99.90;;;7.36;95.64;101349.72;5073352;28;20048;-75
2020/12/16 02:54:03;;;;;;;47.53;30.30;;;7.20;99.90;;;7.40;95.37;101345.38;5073083;28;20110;-75
2020/12/16 02:56:54;;;;;;;49.90;32.05;;;7.30;99.90;;;7.42;95.17;101355.06;5066398;28;20048;-75
2020/12/16 02:59:25;;;;;;;53.53;31.25;;;7.30;99.90;;;7.17;94.95;101316.06;5073083;28;20052;-75
2020/12/16 03:02:00;;;;;;;52.83;31.05;;;7.30;99.90;;;7.21;94.93;101360.00;5072616;28;20143;-75
2020/12/16 03:04:57;;;;;;;48.22;30.35;;;7.20;99.90;;;7.11;95.82;101358.06;5036448;28;20132;-75
2020/12/16 03:07:31;;;;;;;55.90;30.63;;;7.10;99.90;;;6.87;96.37;101339.22;5073044;28;20040;-75
2020/12/16 03:09:59;;;;;;;46.85;30.73;;;7.00;99.90;;;6.27;96.96;101249.66;5072620;28;20129;-74
2020/12/16 03:12:28;;;;;;;42.75;29.20;;;6.90;99.90;;;6.95;97.08;101362.16;5072709;28;20039;-75
2020/12/16 03:14:56;;;;;;;50.17;32.17;;;6.80;99.90;;;6.91;97.28;101369.97;5072859;28;20090;-75
2020/12/16 03:17:25;;;;;;;49.87;32.43;;;6.90;99.90;;;6.79;97.62;101314.53;5072539;28;20048;-74
2020/12/16 03:20:02;;;;;;;53.50;33.50;;;6.80;99.90;;;6.84;97.98;101328.66;5106493;28;20044;-74
2020/12/16 03:22:31;;;;;;;50.75;33.00;;;6.80;99.90;;;6.84;98.06;101319.03;5072200;28;20103;-75
2020/12/16 03:25:19;;;;;;;56.97;33.67;;;6.80;99.90;;;6.72;98.41;101294.25;5072149;28;20061;-74
2020/12/16 03:28:00;;;;;;;55.05;34.45;;;6.80;99.90;;;6.81;98.62;101325.97;5072684;28;20053;-75
2020/12/16 03:30:51;;;;;;;53.30;32.97;;;6.70;99.90;;;6.62;98.69;101326.50;5070201;28;20148;-75
2020/12/16 03:33:35;;;;;;;54.97;34.47;;;6.70;99.90;;;6.54;98.74;101299.19;5072299;28;20048;-74
2020/12/16 03:36:13;;;;;;;53.23;34.87;;;6.70;99.90;;;6.70;98.39;101319.63;5071377;28;20123;-75
2020/12/16 03:38:41;;;;;;;57.43;35.43;;;6.70;99.90;;;7.00;98.35;101336.84;5072213;28;20075;-75
2020/12/16 03:41:09;;;;;;;53.80;35.10;;;6.90;99.90;;;7.09;97.57;101333.47;5071833;28;20045;-75
2020/12/16 03:43:45;;;;;;;53.72;35.30;;;7.00;99.90;;;7.00;97.46;101296.50;5106101;28;20048;-75
2020/12/16 03:46:14;;;;;;;53.97;36.35;;;7.10;99.90;;;7.23;96.85;101332.84;5073180;28;20048;-75
2020/12/16 03:48:44;;;;;;;57.33;36.67;;;7.10;99.90;;;7.21;96.30;101337.22;5071932;28;20044;-75
2020/12/16 03:51:14;;;;;;;53.20;35.58;;;7.10;99.90;;;7.27;96.00;101341.69;5071861;28;20501;-75
2020/12/16 03:53:46;;;;;;;53.00;35.50;;;7.20;99.90;;;6.99;95.79;101335.06;5071820;28;20064;-75
2020/12/16 03:56:27;;;;;;;56.78;36.45;;;7.10;99.90;;;7.02;96.56;101323.72;5071873;28;20056;-74
2020/12/16 03:59:21;;;;;;;57.47;37.33;;;7.10;99.90;;;7.06;96.75;101341.31;5065314;28;20052;-75
2020/12/16 04:02:23;;;;;;;58.38;39.35;;;7.00;99.90;;;7.01;97.15;101348.22;5069754;28;20040;-75
2020/12/16 04:05:05;;;;;;;70.43;42.80;;;7.00;99.90;;;6.92;97.76;101346.34;5071544;28;20398;-75
2020/12/16 04:07:33;;;;;;;73.13;46.97;;;6.90;99.90;;;6.81;97.89;101340.00;5071476;28;20049;-75
2020/12/16 04:10:13;;;;;;;80.70;48.92;;;6.90;99.90;;;6.69;98.67;101323.13;5071462;28;20045;-74
2020/12/16 04:12:41;;;;;;;84.82;51.00;;;6.90;99.90;;;6.94;98.96;101346.38;5071085;28;20059;-74
2020/12/16 04:15:10;;;;;;;94.83;54.77;;;6.90;99.90;;;6.82;99.48;101343.50;5071372;28;20058;-75
2020/12/16 04:17:38;;;;;;;112.17;55.53;;;6.90;99.90;;;6.95;99.61;101343.75;5071342;28;20059;-75
2020/12/16 04:20:12;;;;;;;99.93;55.25;;;6.90;99.90;;;6.96;99.50;101335.03;5071348;28;20047;-75
2020/12/16 04:22:52;;;;;;;117.93;59.17;;;7.00;99.90;;;6.96;99.66;101337.66;5071326;28;20494;-74
2020/12/16 04:25:19;;;;;;;172.23;59.03;;;7.00;99.90;;;7.02;99.93;101355.28;5072391;28;20056;-74
2020/12/16 04:27:47;;;;;;;135.60;60.80;;;7.00;99.90;;;7.14;100.00;101344.97;5072639;28;20036;-74
2020/12/16 04:30:19;;;;;;;188.15;59.25;;;7.10;99.90;;;6.98;99.35;101354.34;5071300;28;20113;-75
2020/12/16 04:32:57;;;;;;;172.47;59.67;;;7.00;99.90;;;6.84;99.56;101349.69;5071172;28;20449;-74
2020/12/16 04:35:26;;;;;;;143.93;56.22;;;7.00;99.90;;;7.02;99.83;101344.75;5070864;28;20059;-74
2020/12/16 04:37:55;;;;;;;307.23;60.22;;;7.00;99.90;;;6.91;99.82;101360.34;5070800;28;20045;-74
2020/12/16 04:40:25;;;;;;;268.80;56.58;;;6.90;99.90;;;6.91;99.88;101351.59;5071024;28;20072;-74
2020/12/16 04:43:04;;;;;;;273.67;58.63;;;6.90;99.90;;;6.70;100.00;101352.06;5071143;28;20075;-74
2020/12/16 04:45:36;;;;;;;268.00;54.87;;;6.70;99.90;;;6.82;100.00;101351.38;5070928;28;20078;-73
2020/12/16 04:48:05;;;;;;;269.08;55.70;;;6.80;99.90;;;6.77;100.00;101353.97;5070913;28;20055;-73
2020/12/16 04:50:34;;;;;;;253.48;57.80;;;6.70;99.90;;;6.62;100.00;101350.16;5070980;28;20052;-73
2020/12/16 04:53:05;;;;;;;221.27;54.57;;;6.60;99.90;;;6.47;100.00;101326.19;5070957;28;20075;-74
2020/12/16 04:55:49;;;;;;;182.40;54.63;;;6.60;99.90;;;6.66;100.00;101350.22;5070948;28;20052;-74
2020/12/16 04:58:25;;;;;;;196.13;53.90;;;6.60;99.90;;;6.69;100.00;101362.53;5072231;28;20141;-73
2020/12/16 05:00:55;;;;;;;206.88;55.97;;;6.60;99.90;;;6.60;100.00;101370.25;5071000;28;20072;-73
2020/12/16 05:03:33;;;;;;;146.27;54.33;;;6.60;99.90;;;6.77;100.00;101368.84;5070886;28;20056;-73
2020/12/16 05:06:35;;;;;;;196.53;51.93;;;6.70;99.90;;;6.68;100.00;101364.28;5071492;28;20053;-74
2020/12/16 05:09:10;;;;;;;165.40;50.97;;;6.70;99.90;;;6.78;100.00;101371.47;5070772;28;20056;-73
2020/12/16 05:11:45;;;;;;;210.43;52.53;;;6.80;99.90;;;6.70;100.00;101374.81;5072273;28;20119;-83
2020/12/16 05:14:16;;;;;;;164.07;48.40;;;6.70;99.90;;;6.66;100.00;101373.88;5072134;28;20393;-83
2020/12/16 05:17:01;;;;;;;227.47;49.40;;;6.60;99.90;;;6.61;100.00;101369.38;5072155;28;20040;-80
2020/12/16 05:19:37;;;;;;;225.43;48.80;;;6.60;99.90;;;6.54;100.00;101370.13;5071710;28;20467;-78
2020/12/16 05:22:18;;;;;;;236.00;49.03;;;6.60;99.90;;;6.50;100.00;101358.69;5072058;28;20036;-81
2020/12/16 05:24:47;;;;;;;183.50;45.05;;;6.50;99.90;;;6.59;100.00;101368.47;5071792;28;20040;-78
2020/12/16 05:27:18;;;;;;;251.30;44.40;;;6.50;99.90;;;6.34;100.00;101336.47;5072101;28;20048;-79
2020/12/16 05:29:45;;;;;;;;;;;6.50;99.90;;;6.49;100.00;101364.78;5071207;28;20048;-78
2020/12/16 05:32:20;;;;;;;265.50;43.37;;;6.50;99.90;;;6.45;100.00;101362.03;5071908;28;20353;-79
2020/12/16 05:34:47;;;;;;;194.53;45.73;;;6.40;99.90;;;6.48;100.00;101370.91;5071993;28;20058;-78
2020/12/16 05:37:39;;;;;;;170.67;44.33;;;6.40;99.90;;;6.47;100.00;101384.88;5071823;28;20048;-78
2020/12/16 05:40:10;;;;;;;190.13;40.73;;;6.40;99.90;;;6.48;100.00;101370.91;5071681;28;20043;-78
2020/12/16 05:42:39;;;;;;;166.03;41.03;;;6.50;99.90;;;6.50;100.00;101381.44;5071549;28;20048;-79
2020/12/16 05:45:13;;;;;;;186.60;41.90;;;6.40;99.90;;;6.55;100.00;101366.63;5071682;28;20041;-88
2020/12/16 05:47:57;;;;;;;161.40;43.33;;;6.50;99.90;;;6.56;100.00;101371.06;5071844;28;20052;-80
2020/12/16 05:50:25;;;;;;;180.53;42.03;;;6.50;99.90;;;6.57;100.00;101376.34;5071784;28;20044;-79
2020/12/16 05:53:10;;;;;;;184.73;41.70;;;6.50;99.90;;;6.70;100.00;101370.44;5071678;28;20148;-78
2020/12/16 05:55:53;;;;;;;161.07;43.23;;;6.60;99.90;;;6.72;100.00;101367.84;5071678;28;20122;-80
2020/12/16 05:58:22;;;;;;;162.10;42.63;;;6.60;99.90;;;6.47;100.00;101334.06;5071323;28;20552;-81
2020/12/16 06:00:53;;;;;;;173.83;42.87;;;6.70;99.90;;;6.68;100.00;101364.28;5074095;28;20090;-79
2020/12/16 06:03:27;;;;;;;157.03;42.97;;;6.70;99.90;;;6.74;100.00;101363.50;5075330;28;20102;-80
2020/12/16 06:05:57;;;;;;;176.30;43.30;;;6.70;99.90;;;6.60;100.00;101359.75;5073915;28;20383;-80
2020/12/16 06:08:28;;;;;;;;;;;6.60;99.90;;;6.64;100.00;101330.03;5075712;28;20047;-80
2020/12/16 06:10:57;;;;;;;138.73;40.93;;;6.70;99.90;;;6.69;100.00;101365.16;5074882;28;20022;-80
2020/12/16 06:13:25;;;;;;;121.60;37.53;;;6.60;99.90;;;6.75;100.00;101367.91;5075457;28;20464;-80
2020/12/16 06:15:58;;;;;;;156.40;38.50;;;6.70;99.90;;;6.74;100.00;101368.75;5074679;28;20052;-79
2020/12/16 06:18:33;;;;;;;169.37;39.17;;;6.70;99.90;;;6.37;100.00;101328.63;5074735;28;20040;-80
2020/12/16 06:21:02;;;;;;;148.60;40.67;;;6.60;99.90;;;6.60;100.00;101370.25;5074909;28;20102;-80
2020/12/16 06:23:34;;;;;;;132.30;38.77;;;6.60;99.90;;;6.59;100.00;101369.38;5074836;28;20036;-80
2020/12/16 06:26:12;;;;;;;121.17;39.53;;;6.60;99.90;;;6.69;100.00;101380.94;5074686;28;20087;-79
2020/12/16 06:28:41;;;;;;;168.97;39.23;;;6.60;99.90;;;6.55;100.00;101385.03;5074734;28;20047;-79
2020/12/16 06:31:29;;;;;;;156.97;37.20;;;6.50;99.90;;;6.48;100.00;101376.16;5074644;28;20071;-79
2020/12/16 06:34:01;;;;;;;136.03;35.13;;;6.50;99.90;;;6.65;100.00;101369.50;5074708;28;20044;-76
2020/12/16 06:36:32;;;;;;;175.27;40.05;;;6.70;99.90;;;6.75;100.00;101381.06;5073642;28;20442;-78
2020/12/16 06:39:01;;;;;;;224.00;42.45;;;6.70;99.90;;;6.91;100.00;101383.13;5074518;28;20051;-78
2020/12/16 06:41:33;;;;;;;131.15;40.17;;;6.80;99.90;;;6.86;100.00;101384.78;5074712;28;20049;-78
2020/12/16 06:44:10;;;;;;;118.30;38.03;;;6.80;99.90;;;6.85;100.00;101383.00;5074382;28;20029;-79
2020/12/16 06:46:43;;;;;;;121.13;38.30;;;6.80;99.90;;;6.79;100.00;101375.00;5074590;28;20037;-78
2020/12/16 06:49:38;;;;;;;111.10;37.03;;;6.80;99.90;;;6.85;100.00;101377.75;5074814;28;20390;-78
2020/12/16 06:52:10;;;;;;;123.60;37.90;;;6.80;99.90;;;6.77;100.00;101368.84;5075120;28;20119;-79
2020/12/16 06:54:52;;;;;;;197.83;41.37;;;6.70;99.90;;;6.84;100.00;101375.97;5074834;28;20036;-78
2020/12/16 06:57:25;;;;;;;146.17;39.37;;;6.80;99.90;;;6.86;100.00;101380.41;5073231;28;20049;-78
2020/12/16 06:59:58;;;;;;;132.17;37.97;;;6.80;99.90;;;6.74;100.00;101371.38;5073971;28;20398;-78
2020/12/16 07:02:32;;;;;;;123.40;34.93;;;6.80;99.90;;;6.60;100.00;101336.09;5074075;28;20051;-78
2020/12/16 07:05:03;;;;;;;123.13;35.47;;;6.80;99.90;;;6.16;100.00;101249.44;5072830;28;20048;-79
2020/12/16 07:07:49;;;;;;;101.30;35.80;;;6.90;99.90;;;6.92;100.00;101392.78;5073834;28;20591;-78
2020/12/16 07:10:46;;;;;;;84.63;34.23;;;6.90;99.90;;;6.98;100.00;101366.59;5074186;28;20045;-77
2020/12/16 07:13:17;;;;;;;76.63;32.93;;;6.90;99.90;;;6.77;100.00;101353.06;5072705;28;20147;-78
2020/12/16 07:15:48;;;;;;;78.27;33.07;;;7.00;99.90;;;7.11;100.00;101390.50;5073799;28;20044;-78
2020/12/16 07:18:38;;;;;;;68.32;33.22;;;7.00;99.90;;;6.99;100.00;101373.59;5072442;28;20056;-78
2020/12/16 07:21:29;;;;;;;72.90;31.83;;;7.00;99.90;;;7.08;100.00;101389.56;5071008;28;20114;-78
2020/12/16 07:24:11;;;;;;;71.20;33.22;;;7.00;99.90;;;7.12;100.00;101387.00;5073767;28;20032;-78
2020/12/16 07:26:51;;;;;;;82.90;34.53;;;7.10;99.90;;;6.81;100.00;101368.03;5073570;28;20432;-77
2020/12/16 07:29:24;;;;;;;;;;;7.00;99.90;;;6.99;100.00;101392.03;5072827;28;20064;-78
2020/12/16 07:32:11;;;;;;;82.17;35.23;;;7.00;99.90;;;6.95;100.00;101385.81;5073281;28;19974;-78
2020/12/16 07:34:48;;;;;;;75.60;34.70;;;6.90;99.90;;;7.07;100.00;101374.63;5106034;28;20045;-78
2020/12/16 07:37:19;;;;;;;81.60;36.23;;;7.00;99.90;;;6.86;100.00;101379.50;5073438;28;20044;-78
2020/12/16 07:39:49;;;;;;;91.93;37.00;;;6.90;99.90;;;6.73;100.00;101338.97;5072161;28;20045;-78
2020/12/16 07:42:27;;;;;;;82.28;36.10;;;6.90;99.90;;;7.00;100.00;101380.66;5073982;28;20033;-78
2020/12/16 07:44:55;;;;;;;80.67;36.73;;;6.90;99.90;;;7.08;100.00;101392.22;5072156;28;20520;-78
2020/12/16 07:47:23;;;;;;;115.70;40.30;;;7.00;99.90;;;7.06;100.00;101389.56;5073354;28;20040;-78
2020/12/16 07:49:51;;;;;;;93.60;38.30;;;7.00;99.90;;;5.36;100.00;101068.50;5073304;28;20506;-78
2020/12/16 07:52:24;;;;;;;110.37;39.27;;;7.10;99.90;;;7.20;100.00;101376.66;5073160;28;20135;-76
2020/12/16 07:54:52;;;;;;;98.63;41.13;;;7.20;99.90;;;7.06;100.00;101354.47;5072957;28;20052;-78
2020/12/16 07:57:30;;;;;;;115.05;41.35;;;7.20;99.90;;;6.96;100.00;101344.66;5072755;28;20094;-77
2020/12/16 07:59:57;;;;;;;128.88;46.75;;;7.20;99.90;;;7.20;100.00;101387.16;5072861;28;20036;-78
2020/12/16 08:02:27;;;;;;;117.23;46.57;;;7.20;99.90;;;7.10;100.00;101353.66;5073001;28;20426;-78
2020/12/16 08:04:57;;;;;;;121.05;48.63;;;7.30;99.90;;;7.37;100.00;101396.22;5072589;28;20041;-79
2020/12/16 08:07:26;;;;;;;114.20;45.38;;;7.30;99.90;;;7.00;100.00;101378.03;5072970;28;20040;-79
2020/12/16 08:09:56;;;;;;;132.27;44.78;;;7.50;99.90;;;7.43;100.00;101390.19;5071390;28;20040;-78
2020/12/16 08:12:26;;;;;;;105.53;45.25;;;7.40;99.90;;;7.54;100.00;101389.50;5073188;28;20044;-78
2020/12/16 08:15:06;;;;;;;119.55;46.53;;;7.50;99.90;;;7.54;100.00;101391.22;5072531;28;20552;-77
2020/12/16 08:17:38;;;;;;;117.25;45.35;;;7.50;99.90;;;7.43;100.00;101382.28;5072742;28;20037;-77
2020/12/16 08:20:11;;;;;;;176.05;49.13;;;7.50;99.90;;;7.42;100.00;101409.44;5072375;28;20494;-78
2020/12/16 08:22:40;;;;;;;147.90;48.77;;;7.50;99.90;;;7.49;100.00;101390.28;5072009;28;20041;-78
2020/12/16 08:25:11;;;;;;;131.05;52.70;;;7.50;99.90;;;7.60;100.00;101397.50;5072364;28;20060;-76
2020/12/16 08:27:43;;;;;;;162.13;51.97;;;7.50;99.90;;;7.52;100.00;101385.94;5071297;28;20110;-77
2020/12/16 08:30:13;;;;;;;134.77;48.33;;;7.50;99.90;;;7.52;100.00;101409.63;5071144;28;20045;-78
2020/12/16 08:32:46;;;;;;;103.57;48.88;;;7.60;99.90;;;7.62;100.00;101393.13;5072266;28;20036;-78
2020/12/16 08:35:20;;;;;;;111.82;46.10;;;7.60;99.90;;;7.55;100.00;101387.75;5072300;28;20051;-78
2020/12/16 08:37:55;;;;;;;101.32;48.60;;;7.60;99.90;;;7.48;100.00;101373.59;5072515;28;20040;-77
2020/12/16 08:40:23;;;;;;;89.75;45.97;;;7.50;99.90;;;7.44;100.00;101366.50;5072209;28;20161;-79
2020/12/16 08:42:50;;;;;;;99.13;46.70;;;7.40;99.90;;;7.51;100.00;101380.66;5072307;28;20443;-78
2020/12/16 08:45:19;;;;;;;92.95;46.83;;;7.40;99.90;;;7.40;100.00;101364.69;5072071;28;20044;-77
2020/12/16 08:47:47;;;;;;;88.43;44.90;;;7.40;99.90;;;7.35;100.00;101366.38;5071900;28;20040;-78
2020/12/16 08:50:17;;;;;;;93.32;46.97;;;7.30;99.90;;;7.46;100.00;101366.53;5072352;28;20126;-78
2020/12/16 08:52:48;;;;;;;89.65;44.83;;;7.40;99.90;;;7.56;100.00;101373.72;5072584;28;20032;-78
2020/12/16 08:55:19;;;;;;;102.85;46.85;;;7.50;99.90;;;7.39;100.00;101368.19;5072288;28;20048;-78
2020/12/16 08:57:51;;;;;;;105.17;50.67;;;7.50;99.90;;;6.90;100.00;101298.09;5072251;28;20052;-78
2020/12/16 09:00:25;;;;;;;103.18;47.22;;;7.50;99.90;;;7.32;100.00;101368.06;5072261;28;20056;-77
2020/12/16 09:03:09;;;;;;;102.90;46.78;;;7.50;99.90;;;7.57;100.00;101410.59;5072016;28;20094;-78
2020/12/16 09:05:38;;;;;;;106.25;50.10;;;7.50;99.90;;;7.62;100.00;101418.56;5072101;28;20143;-80
2020/12/16 09:08:12;;;;;;;100.18;49.67;;;7.60;99.90;;;7.69;100.00;101415.16;5070721;28;20551;-79
2020/12/16 09:10:58;;;;;;;102.32;50.85;;;7.60;99.90;;;7.59;100.00;101386.94;5071666;28;20055;-78
2020/12/16 09:13:30;;;;;;;104.38;45.90;;;7.70;99.90;;;7.69;100.00;101400.25;5072059;28;20051;-78
2020/12/16 09:15:58;;;;;;;101.22;47.90;;;7.80;99.90;;;7.76;100.00;101401.25;5071761;28;20502;-80
2020/12/16 09:18:32;;;;;;;94.88;45.83;;;7.80;99.90;;;7.74;100.00;101413.50;5071629;28;20048;-79
2020/12/16 09:21:00;;;;;;;93.93;46.13;;;7.70;99.90;;;7.85;100.00;101420.72;5072299;28;20040;-79
2020/12/16 09:23:29;;;;;;;88.03;43.92;;;7.80;99.90;;;7.88;100.00;101415.47;5071856;28;20490;-78
2020/12/16 09:25:57;;;;;;;87.40;44.92;;;7.90;99.90;;;7.96;100.00;101419.13;5071585;28;20095;-79
2020/12/16 09:28:34;;;;;;;86.00;42.70;;;7.90;99.90;;;7.85;100.00;101418.06;5071755;28;20402;-79
2020/12/16 09:31:16;;;;;;;76.70;42.38;;;7.90;99.90;;;7.88;100.00;101419.84;5071566;28;20425;-79
2020/12/16 09:33:54;;;;;;;77.82;42.75;;;7.90;99.90;;;7.76;100.00;101422.31;5070547;28;20048;-80
2020/12/16 09:36:26;;;;;;;76.53;37.20;;;7.80;99.90;;;7.68;100.00;101401.13;5075701;28;20182;-79
2020/12/16 09:38:56;;;;;;;71.82;39.67;;;7.90;99.90;;;7.71;100.00;101416.97;5075105;28;20102;-79
2020/12/16 09:41:25;;;;;;;80.22;40.78;;;7.80;99.90;;;7.77;100.00;101419.69;5075342;28;20052;-79
2020/12/16 09:43:52;;;;;;;66.93;38.63;;;7.80;99.90;;;7.70;100.00;101399.41;5074184;28;20506;-78
2020/12/16 09:46:22;;;;;;;69.80;40.17;;;7.80;99.90;;;7.86;100.00;101430.38;5074944;28;20045;-80
2020/12/16 09:48:59;;;;;;;67.37;36.13;;;7.90;99.90;;;7.82;100.00;101433.81;5075433;28;20128;-80
2020/12/16 09:51:27;;;;;;;61.45;37.00;;;7.80;99.90;;;7.28;100.00;101296.06;5075178;28;20044;-80
2020/12/16 09:53:56;;;;;;;59.80;37.28;;;7.90;99.90;;;8.02;100.00;101419.22;5075317;28;20048;-80
2020/12/16 09:56:26;;;;;;;56.05;34.22;;;8.00;99.90;;;8.00;100.00;101412.13;5075119;28;20459;-79
2020/12/16 09:58:55;;;;;;;54.40;34.80;;;8.00;99.90;;;8.04;100.00;101409.59;5075300;28;20409;-80
2020/12/16 10:01:23;;;;;;;53.95;33.28;;;8.00;99.90;;;8.05;100.00;101421.88;5075523;28;20051;-80
2020/12/16 10:03:51;;;;;;;50.65;34.38;;;8.00;99.90;;;6.89;100.00;101192.91;5075240;28;20055;-80
2020/12/16 10:06:18;;;;;;;56.33;34.58;;;8.10;99.90;;;8.32;100.00;101420.53;5073975;28;20051;-81
2020/12/16 10:08:46;;;;;;;54.33;34.67;;;8.20;99.90;;;8.37;100.00;101418.84;5074901;28;20040;-80
2020/12/16 10:11:15;;;;;;;51.53;33.55;;;8.30;99.90;;;8.33;100.00;101352.03;5075082;28;20436;-80
2020/12/16 10:13:45;;;;;;;50.80;32.88;;;8.60;99.90;;;8.79;99.30;101403.53;5073369;28;20052;-82
2020/12/16 10:16:14;;;;;;;46.35;32.00;;;8.70;99.90;;;9.29;98.86;101394.38;5074776;28;20045;-83
2020/12/16 10:18:41;;;;;;;43.03;29.38;;;9.10;99.90;;;9.57;97.09;101399.03;5074822;28;20394;-82
2020/12/16 10:21:09;;;;;;;40.55;27.17;;;9.40;99.90;;;9.58;95.17;101390.22;5074798;28;20045;-80
2020/12/16 10:23:36;;;;;;;37.20;26.70;;;9.60;99.90;;;9.94;93.75;101400.19;5074825;28;20056;-81
2020/12/16 10:26:04;;;;;;;36.35;25.77;;;9.80;99.90;;;10.11;92.25;101403.84;5073112;28;20100;-82
2020/12/16 10:28:33;;;;;;;29.98;23.50;;;10.00;99.90;;;10.26;91.18;101403.94;5073143;28;20055;-83
2020/12/16 10:31:02;;;;;;;35.75;24.10;;;10.10;99.90;;;10.44;90.26;101388.19;5074651;28;20049;-80